sensor_id;sensor_type;location;lat;lon;timestamp;pressure;altitude;pressure_sealevel;temperature;humidity
22020;BME280;51298;53.362;-1.518;2024-02-26T00:01:46;98316.72;;;2.62;86.79
22020;BME280;51298;53.362;-1.518;2024-02-26T00:04:19;98318.59;;;2.60;86.35
22020;BME280;51298;53.362;-1.518;2024-02-26T00:07:05;98329.88;;;2.59;86.36
22020;BME280;51298;53.362;-1.518;2024-02-26T00:09:39;98327.00;;;2.43;87.37
22020;BME280;51298;53.362;-1.518;2024-02-26T00:12:25;98338.06;;;2.34;87.57
22020;BME280;51298;53.362;-1.518;2024-02-26T00:14:59;98355.84;;;2.27;87.69
22020;BME280;51298;53.362;-1.518;2024-02-26T00:17:46;98347.41;;;2.25;88.04
22020;BME280;51298;53.362;-1.518;2024-02-26T00:20:20;98352.03;;;2.31;87.93
22020;BME280;51298;53.362;-1.518;2024-02-26T00:23:06;98357.75;;;2.35;88.36
22020;BME280;51298;53.362;-1.518;2024-02-26T00:25:40;98347.56;;;2.33;87.82
22020;BME280;51298;53.362;-1.518;2024-02-26T00:28:25;98359.94;;;2.39;87.75
22020;BME280;51298;53.362;-1.518;2024-02-26T00:31:01;98352.63;;;2.44;87.46
22020;BME280;51298;53.362;-1.518;2024-02-26T00:33:47;98367.28;;;2.44;87.47
22020;BME280;51298;53.362;-1.518;2024-02-26T00:36:20;98368.47;;;2.40;88.07
22020;BME280;51298;53.362;-1.518;2024-02-26T00:39:06;98375.00;;;2.44;87.59
22020;BME280;51298;53.362;-1.518;2024-02-26T00:41:40;98371.22;;;2.48;87.87
22020;BME280;51298;53.362;-1.518;2024-02-26T00:44:28;98371.63;;;2.53;87.66
22020;BME280;51298;53.362;-1.518;2024-02-26T00:47:01;98372.28;;;2.45;87.71
22020;BME280;51298;53.362;-1.518;2024-02-26T00:49:48;98380.25;;;2.33;87.57
22020;BME280;51298;53.362;-1.518;2024-02-26T00:52:22;98389.75;;;2.32;88.02
22020;BME280;51298;53.362;-1.518;2024-02-26T00:55:08;98386.69;;;2.17;88.20
22020;BME280;51298;53.362;-1.518;2024-02-26T00:57:41;98398.91;;;2.15;88.91
22020;BME280;51298;53.362;-1.518;2024-02-26T01:00:28;98397.88;;;2.07;88.94
22020;BME280;51298;53.362;-1.518;2024-02-26T01:03:02;98398.97;;;2.04;88.69
22020;BME280;51298;53.362;-1.518;2024-02-26T01:05:48;98407.19;;;1.98;89.16
22020;BME280;51298;53.362;-1.518;2024-02-26T01:08:25;98414.25;;;1.96;88.98
22020;BME280;51298;53.362;-1.518;2024-02-26T01:11:16;98410.16;;;1.93;88.97
22020;BME280;51298;53.362;-1.518;2024-02-26T01:13:49;98427.38;;;1.93;88.93
22020;BME280;51298;53.362;-1.518;2024-02-26T01:16:37;98420.31;;;1.95;89.01
22020;BME280;51298;53.362;-1.518;2024-02-26T01:19:10;98428.75;;;1.97;88.79
22020;BME280;51298;53.362;-1.518;2024-02-26T01:22:02;98433.69;;;2.10;88.46
22020;BME280;51298;53.362;-1.518;2024-02-26T01:24:38;98432.06;;;2.09;88.26
22020;BME280;51298;53.362;-1.518;2024-02-26T01:27:25;98441.91;;;2.04;88.61
22020;BME280;51298;53.362;-1.518;2024-02-26T01:30:01;98450.31;;;1.96;89.01
22020;BME280;51298;53.362;-1.518;2024-02-26T01:32:46;98456.56;;;2.03;88.59
22020;BME280;51298;53.362;-1.518;2024-02-26T01:35:21;98465.81;;;2.06;88.25
22020;BME280;51298;53.362;-1.518;2024-02-26T01:38:09;98466.13;;;2.12;88.06
22020;BME280;51298;53.362;-1.518;2024-02-26T01:40:42;98475.41;;;2.25;88.23
22020;BME280;51298;53.362;-1.518;2024-02-26T01:43:29;98476.66;;;2.30;87.27
22020;BME280;51298;53.362;-1.518;2024-02-26T01:46:12;98483.56;;;2.30;87.42
22020;BME280;51298;53.362;-1.518;2024-02-26T01:49:01;98480.56;;;2.25;87.68
22020;BME280;51298;53.362;-1.518;2024-02-26T01:51:39;98481.06;;;2.18;87.64
22020;BME280;51298;53.362;-1.518;2024-02-26T01:54:27;98492.94;;;2.10;88.03
22020;BME280;51298;53.362;-1.518;2024-02-26T01:57:05;98501.03;;;2.05;87.71
22020;BME280;51298;53.362;-1.518;2024-02-26T01:59:51;98501.72;;;2.07;88.00
22020;BME280;51298;53.362;-1.518;2024-02-26T02:02:25;98506.69;;;1.99;88.26
22020;BME280;51298;53.362;-1.518;2024-02-26T02:05:15;98500.97;;;1.95;88.47
22020;BME280;51298;53.362;-1.518;2024-02-26T02:07:51;98510.22;;;1.98;88.45
22020;BME280;51298;53.362;-1.518;2024-02-26T02:10:39;98506.81;;;1.98;88.37
22020;BME280;51298;53.362;-1.518;2024-02-26T02:13:13;98519.00;;;1.95;88.15
22020;BME280;51298;53.362;-1.518;2024-02-26T02:16:07;98511.97;;;1.98;88.18
22020;BME280;51298;53.362;-1.518;2024-02-26T02:18:40;98517.94;;;1.98;88.05
22020;BME280;51298;53.362;-1.518;2024-02-26T02:21:27;98524.34;;;2.04;87.75
22020;BME280;51298;53.362;-1.518;2024-02-26T02:24:01;98544.41;;;2.00;88.26
22020;BME280;51298;53.362;-1.518;2024-02-26T02:26:47;98534.78;;;2.02;87.82
22020;BME280;51298;53.362;-1.518;2024-02-26T02:29:20;98536.53;;;2.02;87.54
22020;BME280;51298;53.362;-1.518;2024-02-26T02:32:08;98549.41;;;2.02;87.38
22020;BME280;51298;53.362;-1.518;2024-02-26T02:34:42;98539.09;;;2.02;87.04
22020;BME280;51298;53.362;-1.518;2024-02-26T02:37:30;98549.03;;;2.06;87.21
22020;BME280;51298;53.362;-1.518;2024-02-26T02:40:07;98555.72;;;2.09;87.09
22020;BME280;51298;53.362;-1.518;2024-02-26T02:42:54;98556.38;;;2.11;87.24
22020;BME280;51298;53.362;-1.518;2024-02-26T02:45:29;98564.59;;;2.16;86.68
22020;BME280;51298;53.362;-1.518;2024-02-26T02:48:16;98575.19;;;2.23;85.92
22020;BME280;51298;53.362;-1.518;2024-02-26T02:50:49;98577.09;;;2.20;85.83
22020;BME280;51298;53.362;-1.518;2024-02-26T02:53:36;98581.09;;;2.13;85.86
22020;BME280;51298;53.362;-1.518;2024-02-26T02:56:09;98577.59;;;2.03;86.21
22020;BME280;51298;53.362;-1.518;2024-02-26T02:58:56;98586.53;;;1.99;87.04
22020;BME280;51298;53.362;-1.518;2024-02-26T03:01:30;98590.28;;;1.95;86.69
22020;BME280;51298;53.362;-1.518;2024-02-26T03:04:17;98595.66;;;1.92;86.94
22020;BME280;51298;53.362;-1.518;2024-02-26T03:06:50;98598.38;;;1.90;87.10
22020;BME280;51298;53.362;-1.518;2024-02-26T03:09:37;98601.09;;;1.89;87.12
22020;BME280;51298;53.362;-1.518;2024-02-26T03:12:10;98611.84;;;1.83;87.30
22020;BME280;51298;53.362;-1.518;2024-02-26T03:15:00;98611.28;;;1.79;87.41
22020;BME280;51298;53.362;-1.518;2024-02-26T03:17:39;98605.69;;;1.74;87.64
22020;BME280;51298;53.362;-1.518;2024-02-26T03:20:27;98608.34;;;1.84;87.37
22020;BME280;51298;53.362;-1.518;2024-02-26T03:23:00;98623.78;;;1.84;87.13
22020;BME280;51298;53.362;-1.518;2024-02-26T03:25:49;98629.06;;;1.82;87.75
22020;BME280;51298;53.362;-1.518;2024-02-26T03:28:23;98628.25;;;1.82;87.58
22020;BME280;51298;53.362;-1.518;2024-02-26T03:31:13;98617.97;;;1.82;87.69
22020;BME280;51298;53.362;-1.518;2024-02-26T03:33:46;98628.34;;;1.91;87.05
22020;BME280;51298;53.362;-1.518;2024-02-26T03:36:34;98631.50;;;1.84;87.47
22020;BME280;51298;53.362;-1.518;2024-02-26T03:39:11;98630.09;;;1.91;87.20
22020;BME280;51298;53.362;-1.518;2024-02-26T03:41:58;98641.91;;;1.93;87.05
22020;BME280;51298;53.362;-1.518;2024-02-26T03:44:35;98646.03;;;1.96;86.82
22020;BME280;51298;53.362;-1.518;2024-02-26T03:47:23;98654.19;;;2.01;87.18
22020;BME280;51298;53.362;-1.518;2024-02-26T03:49:56;98657.47;;;1.92;87.04
22020;BME280;51298;53.362;-1.518;2024-02-26T03:52:43;98664.06;;;1.96;87.04
22020;BME280;51298;53.362;-1.518;2024-02-26T03:55:17;98662.97;;;1.99;87.31
22020;BME280;51298;53.362;-1.518;2024-02-26T03:58:06;98674.91;;;2.00;87.05
22020;BME280;51298;53.362;-1.518;2024-02-26T04:00:39;98676.66;;;1.99;87.45
22020;BME280;51298;53.362;-1.518;2024-02-26T04:03:26;98675.03;;;1.98;87.41
22020;BME280;51298;53.362;-1.518;2024-02-26T04:06:01;98688.63;;;2.00;87.39
22020;BME280;51298;53.362;-1.518;2024-02-26T04:08:47;98686.66;;;1.92;87.56
22020;BME280;51298;53.362;-1.518;2024-02-26T04:11:21;98687.91;;;1.98;87.68
22020;BME280;51298;53.362;-1.518;2024-02-26T04:14:07;98701.38;;;1.90;87.50
22020;BME280;51298;53.362;-1.518;2024-02-26T04:16:41;98709.47;;;1.86;87.66
22020;BME280;51298;53.362;-1.518;2024-02-26T04:19:31;98710.41;;;1.85;88.40
22020;BME280;51298;53.362;-1.518;2024-02-26T04:22:04;98715.78;;;1.82;88.67
22020;BME280;51298;53.362;-1.518;2024-02-26T04:24:51;98719.31;;;1.81;88.44
22020;BME280;51298;53.362;-1.518;2024-02-26T04:27:25;98728.78;;;1.80;88.36
22020;BME280;51298;53.362;-1.518;2024-02-26T04:30:16;98729.13;;;1.76;88.37
22020;BME280;51298;53.362;-1.518;2024-02-26T04:32:51;98742.50;;;1.69;89.08
22020;BME280;51298;53.362;-1.518;2024-02-26T04:35:39;98747.88;;;1.66;89.08
22020;BME280;51298;53.362;-1.518;2024-02-26T04:38:12;98750.91;;;1.71;89.18
22020;BME280;51298;53.362;-1.518;2024-02-26T04:40:59;98755.00;;;1.63;89.03
22020;BME280;51298;53.362;-1.518;2024-02-26T04:43:37;98756.28;;;1.68;89.29
22020;BME280;51298;53.362;-1.518;2024-02-26T04:46:24;98782.84;;;1.69;89.41
22020;BME280;51298;53.362;-1.518;2024-02-26T04:48:59;98768.09;;;1.71;89.75
22020;BME280;51298;53.362;-1.518;2024-02-26T04:51:45;98774.19;;;1.70;89.23
22020;BME280;51298;53.362;-1.518;2024-02-26T04:54:20;98788.81;;;1.69;89.52
22020;BME280;51298;53.362;-1.518;2024-02-26T04:57:07;98789.28;;;1.63;89.27
22020;BME280;51298;53.362;-1.518;2024-02-26T04:59:40;98792.06;;;1.60;89.90
22020;BME280;51298;53.362;-1.518;2024-02-26T05:02:29;98798.41;;;1.67;89.69
22020;BME280;51298;53.362;-1.518;2024-02-26T05:05:06;98810.91;;;1.72;89.67
22020;BME280;51298;53.362;-1.518;2024-02-26T05:07:52;98810.00;;;1.73;89.63
22020;BME280;51298;53.362;-1.518;2024-02-26T05:10:25;98820.41;;;1.83;89.46
22020;BME280;51298;53.362;-1.518;2024-02-26T05:13:19;98820.31;;;1.95;88.99
22020;BME280;51298;53.362;-1.518;2024-02-26T05:15:53;98820.66;;;2.02;88.29
22020;BME280;51298;53.362;-1.518;2024-02-26T05:18:40;98837.53;;;2.06;88.54
22020;BME280;51298;53.362;-1.518;2024-02-26T05:21:14;98839.66;;;2.01;88.14
22020;BME280;51298;53.362;-1.518;2024-02-26T05:24:00;98850.31;;;2.08;87.91
22020;BME280;51298;53.362;-1.518;2024-02-26T05:26:36;98853.56;;;2.10;88.09
22020;BME280;51298;53.362;-1.518;2024-02-26T05:29:22;98862.84;;;2.12;87.47
22020;BME280;51298;53.362;-1.518;2024-02-26T05:31:55;98871.47;;;2.11;86.79
22020;BME280;51298;53.362;-1.518;2024-02-26T05:34:43;98873.97;;;2.13;87.12
22020;BME280;51298;53.362;-1.518;2024-02-26T05:37:17;98879.81;;;2.15;86.94
22020;BME280;51298;53.362;-1.518;2024-02-26T05:40:05;98891.75;;;2.05;87.03
22020;BME280;51298;53.362;-1.518;2024-02-26T05:42:38;98889.28;;;2.03;87.29
22020;BME280;51298;53.362;-1.518;2024-02-26T05:45:25;98894.19;;;2.06;87.73
22020;BME280;51298;53.362;-1.518;2024-02-26T05:48:00;98898.91;;;2.12;87.89
22020;BME280;51298;53.362;-1.518;2024-02-26T05:50:47;98909.53;;;2.19;87.71
22020;BME280;51298;53.362;-1.518;2024-02-26T05:53:20;98916.00;;;2.13;88.32
22020;BME280;51298;53.362;-1.518;2024-02-26T05:56:07;98910.38;;;2.08;88.32
22020;BME280;51298;53.362;-1.518;2024-02-26T05:58:41;98915.03;;;2.03;89.04
22020;BME280;51298;53.362;-1.518;2024-02-26T06:01:28;98927.44;;;1.98;88.95
22020;BME280;51298;53.362;-1.518;2024-02-26T06:04:01;98926.97;;;1.93;89.71
22020;BME280;51298;53.362;-1.518;2024-02-26T06:06:47;98933.75;;;1.94;89.23
22020;BME280;51298;53.362;-1.518;2024-02-26T06:09:19;98932.47;;;1.88;89.51
22020;BME280;51298;53.362;-1.518;2024-02-26T06:12:06;98937.38;;;1.91;89.56
22020;BME280;51298;53.362;-1.518;2024-02-26T06:14:39;98940.28;;;1.87;89.40
22020;BME280;51298;53.362;-1.518;2024-02-26T06:17:28;98958.91;;;1.90;89.68
22020;BME280;51298;53.362;-1.518;2024-02-26T06:20:01;98945.09;;;1.91;89.43
22020;BME280;51298;53.362;-1.518;2024-02-26T06:22:52;98956.00;;;1.95;89.67
22020;BME280;51298;53.362;-1.518;2024-02-26T06:25:25;98957.31;;;2.01;89.21
22020;BME280;51298;53.362;-1.518;2024-02-26T06:28:11;98962.00;;;2.07;88.90
22020;BME280;51298;53.362;-1.518;2024-02-26T06:30:44;98972.06;;;2.10;88.57
22020;BME280;51298;53.362;-1.518;2024-02-26T06:33:32;98963.66;;;2.19;88.14
22020;BME280;51298;53.362;-1.518;2024-02-26T06:36:05;98972.81;;;2.23;88.08
22020;BME280;51298;53.362;-1.518;2024-02-26T06:38:52;98976.88;;;2.14;87.77
22020;BME280;51298;53.362;-1.518;2024-02-26T06:41:28;98981.59;;;2.20;88.09
22020;BME280;51298;53.362;-1.518;2024-02-26T06:44:16;98983.69;;;2.27;87.79
22020;BME280;51298;53.362;-1.518;2024-02-26T06:46:48;98986.28;;;2.27;88.11
22020;BME280;51298;53.362;-1.518;2024-02-26T06:49:39;98997.31;;;2.29;88.21
22020;BME280;51298;53.362;-1.518;2024-02-26T06:52:12;99001.41;;;2.31;88.62
22020;BME280;51298;53.362;-1.518;2024-02-26T06:54:58;99000.59;;;2.31;89.27
22020;BME280;51298;53.362;-1.518;2024-02-26T06:57:31;99014.91;;;2.35;89.45
22020;BME280;51298;53.362;-1.518;2024-02-26T07:00:17;99022.16;;;2.41;89.83
22020;BME280;51298;53.362;-1.518;2024-02-26T07:02:50;99014.66;;;2.38;90.30
22020;BME280;51298;53.362;-1.518;2024-02-26T07:05:37;99026.38;;;2.42;90.10
22020;BME280;51298;53.362;-1.518;2024-02-26T07:08:10;99023.09;;;2.40;90.41
22020;BME280;51298;53.362;-1.518;2024-02-26T07:10:56;99021.00;;;2.45;90.16
22020;BME280;51298;53.362;-1.518;2024-02-26T07:13:29;99036.47;;;2.45;90.24
22020;BME280;51298;53.362;-1.518;2024-02-26T07:16:17;99028.38;;;2.38;89.71
22020;BME280;51298;53.362;-1.518;2024-02-26T07:18:50;99036.94;;;2.39;90.00
22020;BME280;51298;53.362;-1.518;2024-02-26T07:21:38;99048.41;;;2.35;90.29
22020;BME280;51298;53.362;-1.518;2024-02-26T07:24:12;99057.16;;;2.32;90.39
22020;BME280;51298;53.362;-1.518;2024-02-26T07:26:59;99055.78;;;2.39;90.39
22020;BME280;51298;53.362;-1.518;2024-02-26T07:29:34;99056.03;;;2.48;89.97
22020;BME280;51298;53.362;-1.518;2024-02-26T07:32:21;99060.97;;;2.51;90.05
22020;BME280;51298;53.362;-1.518;2024-02-26T07:35:08;99062.97;;;2.47;89.93
22020;BME280;51298;53.362;-1.518;2024-02-26T07:37:41;99066.13;;;2.51;89.72
22020;BME280;51298;53.362;-1.518;2024-02-26T07:40:26;99070.81;;;2.57;89.44
22020;BME280;51298;53.362;-1.518;2024-02-26T07:42:59;99070.16;;;2.66;89.47
22020;BME280;51298;53.362;-1.518;2024-02-26T07:45:45;99086.44;;;2.66;89.43
22020;BME280;51298;53.362;-1.518;2024-02-26T07:48:18;99094.88;;;2.68;89.02
22020;BME280;51298;53.362;-1.518;2024-02-26T07:51:04;99088.44;;;2.74;89.01
22020;BME280;51298;53.362;-1.518;2024-02-26T07:53:37;99102.28;;;2.73;88.95
22020;BME280;51298;53.362;-1.518;2024-02-26T07:56:24;99110.50;;;2.78;88.87
22020;BME280;51298;53.362;-1.518;2024-02-26T07:58:57;99115.66;;;2.78;88.80
22020;BME280;51298;53.362;-1.518;2024-02-26T08:01:48;99127.94;;;2.75;89.19
22020;BME280;51298;53.362;-1.518;2024-02-26T08:04:21;99121.16;;;2.74;88.82
22020;BME280;51298;53.362;-1.518;2024-02-26T08:07:09;99121.63;;;2.79;88.72
22020;BME280;51298;53.362;-1.518;2024-02-26T08:09:43;99120.34;;;2.96;88.03
22020;BME280;51298;53.362;-1.518;2024-02-26T08:12:29;99124.59;;;2.97;87.64
22020;BME280;51298;53.362;-1.518;2024-02-26T08:15:03;99127.66;;;3.02;87.56
22020;BME280;51298;53.362;-1.518;2024-02-26T08:17:50;99131.75;;;3.04;88.39
22020;BME280;51298;53.362;-1.518;2024-02-26T08:20:27;99140.78;;;3.10;87.49
22020;BME280;51298;53.362;-1.518;2024-02-26T08:23:14;99139.97;;;3.09;87.53
22020;BME280;51298;53.362;-1.518;2024-02-26T08:25:47;99150.41;;;3.08;86.99
22020;BME280;51298;53.362;-1.518;2024-02-26T08:28:33;99160.47;;;3.11;87.29
22020;BME280;51298;53.362;-1.518;2024-02-26T08:31:06;99153.00;;;3.08;87.16
22020;BME280;51298;53.362;-1.518;2024-02-26T08:33:52;99163.56;;;3.16;86.24
22020;BME280;51298;53.362;-1.518;2024-02-26T08:36:24;99165.31;;;3.15;86.30
22020;BME280;51298;53.362;-1.518;2024-02-26T08:39:10;99177.28;;;3.16;86.60
22020;BME280;51298;53.362;-1.518;2024-02-26T08:41:46;99169.06;;;3.11;87.04
22020;BME280;51298;53.362;-1.518;2024-02-26T08:44:33;99174.81;;;3.26;86.56
22020;BME280;51298;53.362;-1.518;2024-02-26T08:47:05;99170.03;;;3.55;85.71
22020;BME280;51298;53.362;-1.518;2024-02-26T08:49:52;99172.97;;;3.73;85.11
22020;BME280;51298;53.362;-1.518;2024-02-26T08:52:24;99181.84;;;3.91;84.55
22020;BME280;51298;53.362;-1.518;2024-02-26T08:55:10;99186.72;;;4.28;82.56
22020;BME280;51298;53.362;-1.518;2024-02-26T08:57:43;99188.69;;;4.36;81.68
22020;BME280;51298;53.362;-1.518;2024-02-26T09:00:31;99200.31;;;4.41;81.08
22020;BME280;51298;53.362;-1.518;2024-02-26T09:03:04;99200.59;;;4.27;82.55
22020;BME280;51298;53.362;-1.518;2024-02-26T09:05:51;99206.00;;;4.68;80.84
22020;BME280;51298;53.362;-1.518;2024-02-26T09:08:24;99212.59;;;4.60;80.56
22020;BME280;51298;53.362;-1.518;2024-02-26T09:11:10;99217.06;;;5.32;79.55
22020;BME280;51298;53.362;-1.518;2024-02-26T09:13:42;99221.28;;;5.54;76.99
22020;BME280;51298;53.362;-1.518;2024-02-26T09:16:31;99227.31;;;5.13;77.07
22020;BME280;51298;53.362;-1.518;2024-02-26T09:19:04;99234.28;;;4.80;79.29
22020;BME280;51298;53.362;-1.518;2024-02-26T09:21:50;99239.69;;;4.45;80.49
22020;BME280;51298;53.362;-1.518;2024-02-26T09:24:24;99238.78;;;4.35;81.89
22020;BME280;51298;53.362;-1.518;2024-02-26T09:27:10;99241.47;;;4.33;82.07
22020;BME280;51298;53.362;-1.518;2024-02-26T09:29:43;99237.41;;;4.20;82.78
22020;BME280;51298;53.362;-1.518;2024-02-26T09:32:30;99238.31;;;4.19;83.29
22020;BME280;51298;53.362;-1.518;2024-02-26T09:35:03;99246.38;;;4.48;82.60
22020;BME280;51298;53.362;-1.518;2024-02-26T09:37:49;99260.06;;;4.38;82.58
22020;BME280;51298;53.362;-1.518;2024-02-26T09:40:22;99258.72;;;4.55;81.33
22020;BME280;51298;53.362;-1.518;2024-02-26T09:43:10;99275.00;;;4.78;80.44
22020;BME280;51298;53.362;-1.518;2024-02-26T09:45:46;99270.47;;;4.92;80.15
22020;BME280;51298;53.362;-1.518;2024-02-26T09:48:35;99271.06;;;4.84;80.60
22020;BME280;51298;53.362;-1.518;2024-02-26T09:51:10;99283.53;;;4.90;79.72
22020;BME280;51298;53.362;-1.518;2024-02-26T09:53:59;99280.00;;;4.91;79.38
22020;BME280;51298;53.362;-1.518;2024-02-26T09:56:34;99282.81;;;5.20;79.45
22020;BME280;51298;53.362;-1.518;2024-02-26T09:59:20;99270.69;;;5.42;77.12
22020;BME280;51298;53.362;-1.518;2024-02-26T10:01:53;99287.28;;;5.18;77.79
22020;BME280;51298;53.362;-1.518;2024-02-26T10:04:42;99277.56;;;5.52;77.00
22020;BME280;51298;53.362;-1.518;2024-02-26T10:07:16;99291.34;;;5.74;76.91
22020;BME280;51298;53.362;-1.518;2024-02-26T10:10:05;99294.31;;;5.48;76.21
22020;BME280;51298;53.362;-1.518;2024-02-26T10:12:38;99286.34;;;5.40;76.15
22020;BME280;51298;53.362;-1.518;2024-02-26T10:15:24;99296.78;;;5.29;75.86
22020;BME280;51298;53.362;-1.518;2024-02-26T10:18:54;99294.94;;;5.41;77.80
22020;BME280;51298;53.362;-1.518;2024-02-26T10:21:40;99296.47;;;5.64;75.10
22020;BME280;51298;53.362;-1.518;2024-02-26T10:24:15;99297.19;;;5.76;74.52
22020;BME280;51298;53.362;-1.518;2024-02-26T10:27:02;99296.06;;;5.90;74.08
22020;BME280;51298;53.362;-1.518;2024-02-26T10:29:35;99303.47;;;5.94;74.25
22020;BME280;51298;53.362;-1.518;2024-02-26T10:32:21;99303.78;;;5.80;74.27
22020;BME280;51298;53.362;-1.518;2024-02-26T10:34:57;99296.06;;;5.69;74.33
22020;BME280;51298;53.362;-1.518;2024-02-26T10:37:44;99311.78;;;5.46;74.98
22020;BME280;51298;53.362;-1.518;2024-02-26T10:40:17;99319.06;;;5.41;74.63
22020;BME280;51298;53.362;-1.518;2024-02-26T10:43:03;99316.72;;;5.17;75.55
22020;BME280;51298;53.362;-1.518;2024-02-26T10:45:37;99323.88;;;5.25;75.68
22020;BME280;51298;53.362;-1.518;2024-02-26T10:48:23;99321.47;;;5.33;75.47
22020;BME280;51298;53.362;-1.518;2024-02-26T10:50:57;99342.84;;;5.14;75.42
22020;BME280;51298;53.362;-1.518;2024-02-26T10:53:45;99338.91;;;4.99;76.06
22020;BME280;51298;53.362;-1.518;2024-02-26T10:56:20;99349.06;;;4.79;76.85
22020;BME280;51298;53.362;-1.518;2024-02-26T10:59:09;99348.38;;;4.77;77.33
22020;BME280;51298;53.362;-1.518;2024-02-26T11:01:43;99347.47;;;4.56;77.41
22020;BME280;51298;53.362;-1.518;2024-02-26T11:04:30;99350.25;;;4.86;77.66
22020;BME280;51298;53.362;-1.518;2024-02-26T11:07:03;99370.78;;;4.99;77.17
22020;BME280;51298;53.362;-1.518;2024-02-26T11:09:50;99355.28;;;5.31;76.39
22020;BME280;51298;53.362;-1.518;2024-02-26T11:12:29;99343.84;;;5.76;74.90
22020;BME280;51298;53.362;-1.518;2024-02-26T11:15:16;99352.59;;;5.54;74.71
22020;BME280;51298;53.362;-1.518;2024-02-26T11:17:52;99369.28;;;5.29;75.38
22020;BME280;51298;53.362;-1.518;2024-02-26T11:20:40;99372.94;;;5.26;75.48
22020;BME280;51298;53.362;-1.518;2024-02-26T11:23:13;99358.22;;;5.59;75.95
22020;BME280;51298;53.362;-1.518;2024-02-26T11:25:59;99375.28;;;5.61;75.15
22020;BME280;51298;53.362;-1.518;2024-02-26T11:28:33;99362.81;;;5.55;73.83
22020;BME280;51298;53.362;-1.518;2024-02-26T11:31:24;99358.19;;;5.80;73.37
22020;BME280;51298;53.362;-1.518;2024-02-26T11:34:00;99365.22;;;5.89;73.28
22020;BME280;51298;53.362;-1.518;2024-02-26T11:36:46;99357.56;;;5.87;72.99
22020;BME280;51298;53.362;-1.518;2024-02-26T11:39:19;99359.22;;;6.09;73.00
22020;BME280;51298;53.362;-1.518;2024-02-26T11:42:16;99373.91;;;6.30;71.12
22020;BME280;51298;53.362;-1.518;2024-02-26T11:44:48;99383.03;;;6.24;70.71
22020;BME280;51298;53.362;-1.518;2024-02-26T11:47:34;99380.44;;;5.94;71.44
22020;BME280;51298;53.362;-1.518;2024-02-26T11:50:39;99378.56;;;6.05;71.31
22020;BME280;51298;53.362;-1.518;2024-02-26T11:53:28;99376.34;;;6.22;71.35
22020;BME280;51298;53.362;-1.518;2024-02-26T11:59:09;99392.41;;;5.74;71.67
22020;BME280;51298;53.362;-1.518;2024-02-26T12:01:47;99386.56;;;5.60;71.91
22020;BME280;51298;53.362;-1.518;2024-02-26T12:04:37;99379.63;;;5.61;72.43
22020;BME280;51298;53.362;-1.518;2024-02-26T12:07:12;99398.66;;;5.50;72.62
22020;BME280;51298;53.362;-1.518;2024-02-26T12:10:28;99391.94;;;5.69;72.73
22020;BME280;51298;53.362;-1.518;2024-02-26T12:13:14;99402.00;;;5.83;72.75
22020;BME280;51298;53.362;-1.518;2024-02-26T12:16:00;99409.69;;;6.05;71.48
22020;BME280;51298;53.362;-1.518;2024-02-26T12:18:34;99408.16;;;6.54;72.04
22020;BME280;51298;53.362;-1.518;2024-02-26T12:21:20;99409.06;;;6.44;71.28
22020;BME280;51298;53.362;-1.518;2024-02-26T12:23:53;99431.91;;;6.50;70.71
22020;BME280;51298;53.362;-1.518;2024-02-26T12:26:39;99424.59;;;6.34;70.61
22020;BME280;51298;53.362;-1.518;2024-02-26T12:29:12;99425.78;;;6.30;70.98
22020;BME280;51298;53.362;-1.518;2024-02-26T12:32:03;99412.91;;;6.49;68.09
22020;BME280;51298;53.362;-1.518;2024-02-26T12:34:37;99408.84;;;6.56;67.68
22020;BME280;51298;53.362;-1.518;2024-02-26T12:37:24;99413.22;;;6.56;69.22
22020;BME280;51298;53.362;-1.518;2024-02-26T12:39:57;99418.66;;;6.53;69.34
22020;BME280;51298;53.362;-1.518;2024-02-26T12:42:43;99421.16;;;6.33;69.78
22020;BME280;51298;53.362;-1.518;2024-02-26T12:45:16;99422.56;;;6.38;69.82
22020;BME280;51298;53.362;-1.518;2024-02-26T12:48:05;99421.31;;;6.63;68.51
22020;BME280;51298;53.362;-1.518;2024-02-26T12:50:38;99433.44;;;6.93;67.90
22020;BME280;51298;53.362;-1.518;2024-02-26T12:53:26;99430.03;;;6.92;68.17
22020;BME280;51298;53.362;-1.518;2024-02-26T12:55:59;99422.19;;;6.82;67.50
22020;BME280;51298;53.362;-1.518;2024-02-26T12:58:46;99446.19;;;6.34;68.47
22020;BME280;51298;53.362;-1.518;2024-02-26T13:01:23;99457.22;;;6.57;67.89
22020;BME280;51298;53.362;-1.518;2024-02-26T13:04:10;99439.91;;;6.68;68.91
22020;BME280;51298;53.362;-1.518;2024-02-26T13:06:45;99441.09;;;6.94;68.13
22020;BME280;51298;53.362;-1.518;2024-02-26T13:09:32;99454.63;;;6.88;67.75
22020;BME280;51298;53.362;-1.518;2024-02-26T13:12:07;99464.00;;;6.49;68.49
22020;BME280;51298;53.362;-1.518;2024-02-26T13:15:03;99470.28;;;6.46;68.35
22020;BME280;51298;53.362;-1.518;2024-02-26T13:17:36;99483.59;;;6.42;68.81
22020;BME280;51298;53.362;-1.518;2024-02-26T13:20:29;99491.56;;;6.19;69.33
22020;BME280;51298;53.362;-1.518;2024-02-26T13:23:11;99484.81;;;5.96;70.53
22020;BME280;51298;53.362;-1.518;2024-02-26T13:25:58;99480.09;;;6.22;69.27
22020;BME280;51298;53.362;-1.518;2024-02-26T13:28:31;99477.88;;;6.38;67.90
22020;BME280;51298;53.362;-1.518;2024-02-26T13:31:17;99484.09;;;6.56;68.25
22020;BME280;51298;53.362;-1.518;2024-02-26T13:33:52;99481.31;;;6.69;67.41
22020;BME280;51298;53.362;-1.518;2024-02-26T13:36:38;99485.13;;;7.05;68.07
22020;BME280;51298;53.362;-1.518;2024-02-26T13:39:21;99489.72;;;7.23;65.43
22020;BME280;51298;53.362;-1.518;2024-02-26T13:42:10;99508.13;;;6.79;65.29
22020;BME280;51298;53.362;-1.518;2024-02-26T13:44:45;99489.69;;;6.52;66.64
22020;BME280;51298;53.362;-1.518;2024-02-26T13:47:38;99493.56;;;6.57;67.77
22020;BME280;51298;53.362;-1.518;2024-02-26T13:50:12;99500.25;;;6.60;67.96
22020;BME280;51298;53.362;-1.518;2024-02-26T13:52:59;99492.41;;;6.50;68.31
22020;BME280;51298;53.362;-1.518;2024-02-26T13:55:32;99500.88;;;6.52;68.97
22020;BME280;51298;53.362;-1.518;2024-02-26T13:58:19;99513.03;;;6.52;68.07
22020;BME280;51298;53.362;-1.518;2024-02-26T14:00:56;99490.06;;;6.47;68.34
22020;BME280;51298;53.362;-1.518;2024-02-26T14:03:43;99504.13;;;6.45;68.10
22020;BME280;51298;53.362;-1.518;2024-02-26T14:06:16;99519.44;;;6.48;67.59
22020;BME280;51298;53.362;-1.518;2024-02-26T14:09:02;99519.19;;;6.51;66.75
22020;BME280;51298;53.362;-1.518;2024-02-26T14:11:37;99520.31;;;6.58;66.82
22020;BME280;51298;53.362;-1.518;2024-02-26T14:14:24;99515.41;;;6.65;66.70
22020;BME280;51298;53.362;-1.518;2024-02-26T14:16:58;99516.16;;;6.76;66.64